createdAt,value
2022-11-28T00:04:04.091Z,91.37
2022-11-28T00:13:40.988Z,90.97
2022-11-28T00:32:54.718Z,89.9
2022-11-28T00:42:31.645Z,90.86
2022-11-28T00:52:08.594Z,90.12
2022-11-28T01:01:45.766Z,89.52
2022-11-28T01:11:22.686Z,90.87
2022-11-28T01:20:59.667Z,88.96
2022-11-28T01:30:36.653Z,90.11
2022-11-28T01:49:50.526Z,88.03
2022-11-28T01:59:27.387Z,89.79
2022-11-28T02:09:04.236Z,87.58
2022-11-28T02:28:18.802Z,85.24
2022-11-28T02:47:32.731Z,84.53
2022-11-28T02:57:09.502Z,85.38
2022-11-28T03:06:46.256Z,86.06
2022-11-28T03:16:23.474Z,84.8
2022-11-28T03:26:00.143Z,86.07
2022-11-28T03:35:37.057Z,85.83
2022-11-28T03:45:13.717Z,87.74
2022-11-28T03:54:50.921Z,87.72
2022-11-28T04:04:27.701Z,87.16
2022-11-28T04:14:04.746Z,86.79
2022-11-28T04:23:41.741Z,87.98
2022-11-28T04:33:18.300Z,88.59
2022-11-28T04:42:55.108Z,88.49
2022-11-28T05:02:08.542Z,87.99
2022-11-28T05:11:44.952Z,89.48
2022-11-28T05:21:21.759Z,88.55
2022-11-28T05:30:58.574Z,88.93
2022-11-28T05:40:35.341Z,87.59
2022-11-28T05:50:12.046Z,87.67
2022-11-28T05:59:48.843Z,88.04
2022-11-28T06:09:26.257Z,86.37
2022-11-28T06:19:02.470Z,85.1
2022-11-28T06:28:39.621Z,85.81
2022-11-28T06:38:16.201Z,87.76
2022-11-28T06:47:53.195Z,88.11
2022-11-28T06:57:29.720Z,88.91
2022-11-28T07:16:43.596Z,86.36
2022-11-28T07:26:20.498Z,85.03
2022-11-28T07:35:57.665Z,85.35
2022-11-28T07:45:53.700Z,84.4
2022-11-28T07:55:12.451Z,81.6
2022-11-28T08:04:52.799Z,81.38
2022-11-28T08:14:26.556Z,80.15
2022-11-28T08:24:03.648Z,80.55
2022-11-28T08:33:40.356Z,81.12
2022-11-28T08:43:17.443Z,78.01
2022-11-28T08:52:55.119Z,77.63
2022-11-28T09:02:32.952Z,74.36
2022-11-28T09:12:10.867Z,75.06
2022-11-28T09:21:50.933Z,73.32
2022-11-28T09:31:25.972Z,71.24
2022-11-28T09:41:03.596Z,72.83
2022-11-28T09:50:40.555Z,73.45
2022-11-28T10:00:16.913Z,70.61
2022-11-28T10:09:53.833Z,70.69
2022-11-28T10:19:53.157Z,69.96
2022-11-28T10:29:08.444Z,69.77
2022-11-28T10:38:45.311Z,70.51
2022-11-28T10:57:59.381Z,69.04
2022-11-28T11:07:36.678Z,68.29
2022-11-28T11:17:14.398Z,68.37
2022-11-28T11:26:51.807Z,69.58
2022-11-28T11:46:05.979Z,71.39
2022-11-28T11:55:43.012Z,69.11
2022-11-28T12:05:20.298Z,72.5
2022-11-28T12:14:57.707Z,69.47
2022-11-28T12:24:34.829Z,71.04
2022-11-28T12:34:12.475Z,69.73
2022-11-28T12:43:49.202Z,69.77
2022-11-28T13:03:02.755Z,71.51
2022-11-28T13:12:39.291Z,72.8
2022-11-28T13:22:14.123Z,71.36
2022-11-28T13:31:51.218Z,73.77
2022-11-28T13:42:01.482Z,70.5
2022-11-28T13:51:06.473Z,70.14
2022-11-28T14:00:42.358Z,71.14
2022-11-28T14:10:18.979Z,72.12
2022-11-28T14:19:55.513Z,74.8
2022-11-28T14:39:08.876Z,76.12
2022-11-28T14:48:45.501Z,75.87
2022-11-28T14:58:21.817Z,74.4
2022-11-28T15:17:34.422Z,77.79
2022-11-28T15:27:11.087Z,76.78
2022-11-28T15:36:47.729Z,78.97
2022-11-28T15:46:24.387Z,79.37
2022-11-28T15:56:00.981Z,79.32
2022-11-28T16:05:37.718Z,78.65
2022-11-28T16:15:16.014Z,80.03
2022-11-28T16:24:51.781Z,81.49
2022-11-28T16:34:28.929Z,81.21
2022-11-28T16:44:05.612Z,82.15
2022-11-28T16:53:42.793Z,83.06
2022-11-28T17:12:56.791Z,83.06
2022-11-28T17:22:37.414Z,83.92
2022-11-28T17:32:10.694Z,84.9
2022-11-28T17:41:47.704Z,83.72
2022-11-28T17:51:25.119Z,82.73
2022-11-28T18:01:01.996Z,83.39
2022-11-28T18:10:38.918Z,82.42
2022-11-28T18:20:15.872Z,82.55
2022-11-28T18:29:53.046Z,83.88
2022-11-28T18:39:30.150Z,82.65
2022-11-28T18:49:06.947Z,82.56
2022-11-28T18:58:43.736Z,83.28
2022-11-28T19:08:20.686Z,83.21
2022-11-28T19:17:57.602Z,83.87
2022-11-28T19:27:34.608Z,84.93
2022-11-28T19:37:11.212Z,85.68
2022-11-28T19:46:48.154Z,86.16
2022-11-28T19:56:25.326Z,86.79
2022-11-28T20:06:02.429Z,87.7
2022-11-28T20:15:39.364Z,88.24
2022-11-28T20:25:20.578Z,87.43
2022-11-28T20:34:53.277Z,87.5
2022-11-28T20:44:30.387Z,88.74
2022-11-28T20:54:07.306Z,91.78
2022-11-28T21:03:44.120Z,92.86
2022-11-28T21:13:20.548Z,92.84
2022-11-28T21:22:59.383Z,94.59
2022-11-28T21:32:34.768Z,94.57
2022-11-28T21:42:14.949Z,96.08
2022-11-28T21:51:48.500Z,99.59
2022-11-28T22:01:25.528Z,100
2022-11-28T22:11:02.379Z,100
2022-11-28T22:20:43.778Z,100
2022-11-28T22:30:16.162Z,100
2022-11-28T22:39:52.963Z,100
2022-11-28T22:49:30.172Z,100
2022-11-28T22:59:06.856Z,100
2022-11-28T23:08:43.483Z,100
2022-11-28T23:18:20.402Z,100
2022-11-28T23:27:57.418Z,100
2022-11-28T23:37:34.103Z,100
2022-11-28T23:47:11.097Z,100
2022-11-28T23:56:47.508Z,100
